sensor_id;sensor_type;location;lat;lon;timestamp;P1;durP1;ratioP1;P2;durP2;ratioP2
14933;SDS011;7560;51.364;12.384;2024-01-25T00:01:02;11.70;;;2.83;;
14933;SDS011;7560;51.364;12.384;2024-01-25T00:06:05;11.27;;;2.70;;
14933;SDS011;7560;51.364;12.384;2024-01-25T00:11:08;13.07;;;2.58;;
14933;SDS011;7560;51.364;12.384;2024-01-25T00:16:10;14.18;;;2.97;;
14933;SDS011;7560;51.364;12.384;2024-01-25T00:21:13;16.08;;;3.08;;
14933;SDS011;7560;51.364;12.384;2024-01-25T00:26:14;15.85;;;2.88;;
14933;SDS011;7560;51.364;12.384;2024-01-25T00:31:16;14.45;;;2.70;;
14933;SDS011;7560;51.364;12.384;2024-01-25T00:36:18;14.35;;;2.72;;
14933;SDS011;7560;51.364;12.384;2024-01-25T00:41:21;15.55;;;2.60;;
14933;SDS011;7560;51.364;12.384;2024-01-25T00:46:23;12.02;;;2.78;;
14933;SDS011;7560;51.364;12.384;2024-01-25T00:51:25;14.30;;;2.80;;
14933;SDS011;7560;51.364;12.384;2024-01-25T00:56:28;12.88;;;3.25;;
14933;SDS011;7560;51.364;12.384;2024-01-25T01:01:30;13.38;;;2.83;;
14933;SDS011;7560;51.364;12.384;2024-01-25T01:06:32;11.18;;;2.50;;
14933;SDS011;7560;51.364;12.384;2024-01-25T01:11:35;11.55;;;2.80;;
14933;SDS011;7560;51.364;12.384;2024-01-25T01:16:37;12.65;;;2.35;;
14933;SDS011;7560;51.364;12.384;2024-01-25T01:21:39;15.55;;;2.88;;
14933;SDS011;7560;51.364;12.384;2024-01-25T01:26:44;11.45;;;3.03;;
14933;SDS011;7560;51.364;12.384;2024-01-25T01:31:47;14.15;;;3.05;;
14933;SDS011;7560;51.364;12.384;2024-01-25T01:36:49;14.73;;;2.88;;
14933;SDS011;7560;51.364;12.384;2024-01-25T01:41:51;13.18;;;2.47;;
14933;SDS011;7560;51.364;12.384;2024-01-25T01:46:53;18.60;;;3.17;;
14933;SDS011;7560;51.364;12.384;2024-01-25T01:51:56;15.68;;;3.38;;
14933;SDS011;7560;51.364;12.384;2024-01-25T01:56:58;11.07;;;2.58;;
14933;SDS011;7560;51.364;12.384;2024-01-25T02:02:00;10.68;;;2.33;;
14933;SDS011;7560;51.364;12.384;2024-01-25T02:07:02;11.43;;;3.00;;
14933;SDS011;7560;51.364;12.384;2024-01-25T02:12:05;12.80;;;2.65;;
14933;SDS011;7560;51.364;12.384;2024-01-25T02:17:08;12.70;;;3.30;;
14933;SDS011;7560;51.364;12.384;2024-01-25T02:22:10;10.55;;;2.40;;
14933;SDS011;7560;51.364;12.384;2024-01-25T02:27:12;18.45;;;3.00;;
14933;SDS011;7560;51.364;12.384;2024-01-25T02:32:13;12.57;;;3.00;;
14933;SDS011;7560;51.364;12.384;2024-01-25T02:37:15;15.77;;;2.38;;
14933;SDS011;7560;51.364;12.384;2024-01-25T02:42:18;12.82;;;2.70;;
14933;SDS011;7560;51.364;12.384;2024-01-25T02:47:20;11.80;;;3.67;;
14933;SDS011;7560;51.364;12.384;2024-01-25T02:52:22;13.60;;;2.88;;
14933;SDS011;7560;51.364;12.384;2024-01-25T02:57:23;12.35;;;2.95;;
14933;SDS011;7560;51.364;12.384;2024-01-25T03:02:26;12.48;;;2.85;;
14933;SDS011;7560;51.364;12.384;2024-01-25T03:07:27;10.23;;;2.80;;
14933;SDS011;7560;51.364;12.384;2024-01-25T03:12:29;18.77;;;3.75;;
14933;SDS011;7560;51.364;12.384;2024-01-25T03:17:31;13.38;;;2.97;;
14933;SDS011;7560;51.364;12.384;2024-01-25T03:22:33;15.40;;;2.83;;
14933;SDS011;7560;51.364;12.384;2024-01-25T03:27:35;15.80;;;2.63;;
14933;SDS011;7560;51.364;12.384;2024-01-25T03:32:36;14.48;;;2.83;;
14933;SDS011;7560;51.364;12.384;2024-01-25T03:37:38;17.05;;;3.00;;
14933;SDS011;7560;51.364;12.384;2024-01-25T03:42:40;13.57;;;2.45;;
14933;SDS011;7560;51.364;12.384;2024-01-25T03:47:45;10.05;;;2.40;;
14933;SDS011;7560;51.364;12.384;2024-01-25T03:52:47;16.85;;;2.83;;
14933;SDS011;7560;51.364;12.384;2024-01-25T03:57:49;15.30;;;2.78;;
14933;SDS011;7560;51.364;12.384;2024-01-25T04:02:51;19.65;;;3.45;;
14933;SDS011;7560;51.364;12.384;2024-01-25T04:07:53;16.88;;;3.33;;
14933;SDS011;7560;51.364;12.384;2024-01-25T04:12:54;16.27;;;2.90;;
14933;SDS011;7560;51.364;12.384;2024-01-25T04:17:57;13.93;;;2.83;;
14933;SDS011;7560;51.364;12.384;2024-01-25T04:22:58;17.15;;;3.42;;
14933;SDS011;7560;51.364;12.384;2024-01-25T04:28:01;14.57;;;2.55;;
14933;SDS011;7560;51.364;12.384;2024-01-25T04:33:03;14.20;;;3.20;;
14933;SDS011;7560;51.364;12.384;2024-01-25T04:38:05;11.45;;;3.40;;
14933;SDS011;7560;51.364;12.384;2024-01-25T04:43:07;13.23;;;2.90;;
14933;SDS011;7560;51.364;12.384;2024-01-25T04:48:09;15.32;;;2.60;;
14933;SDS011;7560;51.364;12.384;2024-01-25T04:53:11;12.60;;;3.03;;
14933;SDS011;7560;51.364;12.384;2024-01-25T04:58:13;16.23;;;3.22;;
14933;SDS011;7560;51.364;12.384;2024-01-25T05:03:15;13.65;;;2.90;;
14933;SDS011;7560;51.364;12.384;2024-01-25T05:08:17;15.20;;;2.97;;
14933;SDS011;7560;51.364;12.384;2024-01-25T05:13:19;13.48;;;2.60;;
14933;SDS011;7560;51.364;12.384;2024-01-25T05:18:21;9.15;;;2.42;;
14933;SDS011;7560;51.364;12.384;2024-01-25T05:23:22;8.73;;;2.20;;
14933;SDS011;7560;51.364;12.384;2024-01-25T05:28:24;10.25;;;2.35;;
14933;SDS011;7560;51.364;12.384;2024-01-25T05:33:26;11.15;;;2.78;;
14933;SDS011;7560;51.364;12.384;2024-01-25T05:38:28;10.88;;;2.33;;
14933;SDS011;7560;51.364;12.384;2024-01-25T05:43:30;13.98;;;2.67;;
14933;SDS011;7560;51.364;12.384;2024-01-25T05:48:33;12.43;;;2.22;;
14933;SDS011;7560;51.364;12.384;2024-01-25T05:53:35;16.70;;;2.90;;
14933;SDS011;7560;51.364;12.384;2024-01-25T05:58:37;10.15;;;2.88;;
14933;SDS011;7560;51.364;12.384;2024-01-25T06:03:39;11.20;;;2.78;;
14933;SDS011;7560;51.364;12.384;2024-01-25T06:08:41;12.05;;;2.13;;
14933;SDS011;7560;51.364;12.384;2024-01-25T06:13:45;9.18;;;2.08;;
14933;SDS011;7560;51.364;12.384;2024-01-25T06:18:47;10.38;;;2.20;;
14933;SDS011;7560;51.364;12.384;2024-01-25T06:23:49;8.13;;;2.03;;
14933;SDS011;7560;51.364;12.384;2024-01-25T06:28:51;10.07;;;2.10;;
14933;SDS011;7560;51.364;12.384;2024-01-25T06:33:53;13.73;;;2.30;;
14933;SDS011;7560;51.364;12.384;2024-01-25T06:38:55;14.50;;;2.42;;
14933;SDS011;7560;51.364;12.384;2024-01-25T06:43:57;8.07;;;1.92;;
14933;SDS011;7560;51.364;12.384;2024-01-25T06:48:58;12.13;;;2.47;;
14933;SDS011;7560;51.364;12.384;2024-01-25T06:54:01;14.73;;;2.42;;
14933;SDS011;7560;51.364;12.384;2024-01-25T06:59:03;11.88;;;2.10;;
14933;SDS011;7560;51.364;12.384;2024-01-25T07:04:05;11.25;;;2.00;;
14933;SDS011;7560;51.364;12.384;2024-01-25T07:09:07;9.50;;;2.20;;
14933;SDS011;7560;51.364;12.384;2024-01-25T07:14:09;8.10;;;1.70;;
14933;SDS011;7560;51.364;12.384;2024-01-25T07:19:11;9.27;;;2.20;;
14933;SDS011;7560;51.364;12.384;2024-01-25T07:24:14;9.88;;;2.20;;
14933;SDS011;7560;51.364;12.384;2024-01-25T07:29:16;9.27;;;1.98;;
14933;SDS011;7560;51.364;12.384;2024-01-25T07:34:18;10.85;;;2.00;;
14933;SDS011;7560;51.364;12.384;2024-01-25T07:39:20;12.48;;;2.00;;
14933;SDS011;7560;51.364;12.384;2024-01-25T07:44:21;13.93;;;2.35;;
14933;SDS011;7560;51.364;12.384;2024-01-25T07:49:23;13.43;;;2.30;;
14933;SDS011;7560;51.364;12.384;2024-01-25T07:54:25;11.27;;;2.03;;
14933;SDS011;7560;51.364;12.384;2024-01-25T07:59:27;11.27;;;2.13;;
14933;SDS011;7560;51.364;12.384;2024-01-25T08:04:29;14.07;;;2.45;;
14933;SDS011;7560;51.364;12.384;2024-01-25T08:09:32;10.35;;;1.60;;
14933;SDS011;7560;51.364;12.384;2024-01-25T08:14:34;10.13;;;1.90;;
14933;SDS011;7560;51.364;12.384;2024-01-25T08:19:35;5.95;;;1.70;;
14933;SDS011;7560;51.364;12.384;2024-01-25T08:24:41;8.63;;;1.83;;
14933;SDS011;7560;51.364;12.384;2024-01-25T08:29:43;8.77;;;2.17;;
14933;SDS011;7560;51.364;12.384;2024-01-25T08:34:44;16.92;;;2.50;;
14933;SDS011;7560;51.364;12.384;2024-01-25T08:39:46;12.13;;;2.85;;
14933;SDS011;7560;51.364;12.384;2024-01-25T08:44:51;8.63;;;2.53;;
14933;SDS011;7560;51.364;12.384;2024-01-25T08:49:53;12.68;;;3.10;;
14933;SDS011;7560;51.364;12.384;2024-01-25T08:54:55;11.32;;;2.33;;
14933;SDS011;7560;51.364;12.384;2024-01-25T08:59:57;11.20;;;2.22;;
14933;SDS011;7560;51.364;12.384;2024-01-25T09:04:59;12.10;;;2.17;;
14933;SDS011;7560;51.364;12.384;2024-01-25T09:10:02;10.98;;;2.97;;
14933;SDS011;7560;51.364;12.384;2024-01-25T09:15:06;12.35;;;2.63;;
14933;SDS011;7560;51.364;12.384;2024-01-25T09:20:09;12.00;;;2.35;;
14933;SDS011;7560;51.364;12.384;2024-01-25T09:25:12;12.45;;;2.40;;
14933;SDS011;7560;51.364;12.384;2024-01-25T09:30:14;9.48;;;2.20;;
14933;SDS011;7560;51.364;12.384;2024-01-25T09:35:17;7.07;;;2.35;;
14933;SDS011;7560;51.364;12.384;2024-01-25T09:40:19;9.57;;;2.28;;
14933;SDS011;7560;51.364;12.384;2024-01-25T09:45:22;14.10;;;2.70;;
14933;SDS011;7560;51.364;12.384;2024-01-25T09:50:25;12.30;;;2.72;;
14933;SDS011;7560;51.364;12.384;2024-01-25T09:55:28;9.93;;;3.33;;
14933;SDS011;7560;51.364;12.384;2024-01-25T10:00:32;9.73;;;2.08;;
14933;SDS011;7560;51.364;12.384;2024-01-25T10:05:34;9.47;;;1.90;;
14933;SDS011;7560;51.364;12.384;2024-01-25T10:10:36;11.95;;;2.83;;
14933;SDS011;7560;51.364;12.384;2024-01-25T10:15:38;11.90;;;2.55;;
14933;SDS011;7560;51.364;12.384;2024-01-25T10:20:42;12.45;;;3.42;;
14933;SDS011;7560;51.364;12.384;2024-01-25T10:25:45;15.52;;;2.90;;
14933;SDS011;7560;51.364;12.384;2024-01-25T10:30:47;7.88;;;2.05;;
14933;SDS011;7560;51.364;12.384;2024-01-25T10:35:49;8.25;;;1.90;;
14933;SDS011;7560;51.364;12.384;2024-01-25T10:40:53;5.22;;;1.90;;
14933;SDS011;7560;51.364;12.384;2024-01-25T10:45:55;10.43;;;2.17;;
14933;SDS011;7560;51.364;12.384;2024-01-25T10:51:03;11.40;;;2.25;;
14933;SDS011;7560;51.364;12.384;2024-01-25T10:56:06;10.30;;;1.92;;
14933;SDS011;7560;51.364;12.384;2024-01-25T11:01:08;9.15;;;1.45;;
14933;SDS011;7560;51.364;12.384;2024-01-25T11:06:17;8.35;;;2.80;;
14933;SDS011;7560;51.364;12.384;2024-01-25T11:11:22;9.70;;;1.92;;
14933;SDS011;7560;51.364;12.384;2024-01-25T11:16:28;10.25;;;2.13;;
14933;SDS011;7560;51.364;12.384;2024-01-25T11:26:51;11.30;;;1.95;;
14933;SDS011;7560;51.364;12.384;2024-01-25T11:31:55;7.80;;;1.63;;
14933;SDS011;7560;51.364;12.384;2024-01-25T11:36:57;7.95;;;1.70;;
14933;SDS011;7560;51.364;12.384;2024-01-25T11:41:59;4.97;;;1.77;;
14933;SDS011;7560;51.364;12.384;2024-01-25T11:47:01;11.50;;;2.00;;
14933;SDS011;7560;51.364;12.384;2024-01-25T11:52:03;8.35;;;1.60;;
14933;SDS011;7560;51.364;12.384;2024-01-25T11:57:05;8.55;;;2.25;;
14933;SDS011;7560;51.364;12.384;2024-01-25T12:02:07;7.65;;;1.92;;
14933;SDS011;7560;51.364;12.384;2024-01-25T12:07:10;11.88;;;2.03;;
14933;SDS011;7560;51.364;12.384;2024-01-25T12:12:12;7.53;;;1.85;;
14933;SDS011;7560;51.364;12.384;2024-01-25T12:17:13;14.32;;;2.50;;
14933;SDS011;7560;51.364;12.384;2024-01-25T12:22:21;6.63;;;1.92;;
14933;SDS011;7560;51.364;12.384;2024-01-25T12:27:24;14.35;;;2.42;;
14933;SDS011;7560;51.364;12.384;2024-01-25T12:32:27;10.70;;;2.20;;
14933;SDS011;7560;51.364;12.384;2024-01-25T12:37:29;10.48;;;2.00;;
14933;SDS011;7560;51.364;12.384;2024-01-25T12:42:31;9.60;;;1.70;;
14933;SDS011;7560;51.364;12.384;2024-01-25T12:47:33;9.45;;;2.00;;
14933;SDS011;7560;51.364;12.384;2024-01-25T12:52:35;11.55;;;2.13;;
14933;SDS011;7560;51.364;12.384;2024-01-25T12:57:37;13.50;;;1.95;;
14933;SDS011;7560;51.364;12.384;2024-01-25T13:02:39;9.65;;;2.00;;
14933;SDS011;7560;51.364;12.384;2024-01-25T13:07:41;9.18;;;2.05;;
14933;SDS011;7560;51.364;12.384;2024-01-25T13:12:43;9.25;;;2.00;;
14933;SDS011;7560;51.364;12.384;2024-01-25T13:17:45;9.50;;;2.17;;
14933;SDS011;7560;51.364;12.384;2024-01-25T13:22:47;11.70;;;2.40;;
14933;SDS011;7560;51.364;12.384;2024-01-25T13:27:49;6.30;;;1.95;;
14933;SDS011;7560;51.364;12.384;2024-01-25T13:32:51;7.78;;;1.65;;
14933;SDS011;7560;51.364;12.384;2024-01-25T13:37:53;5.78;;;1.50;;
14933;SDS011;7560;51.364;12.384;2024-01-25T13:42:55;7.35;;;1.70;;
14933;SDS011;7560;51.364;12.384;2024-01-25T13:47:57;8.60;;;1.67;;
14933;SDS011;7560;51.364;12.384;2024-01-25T13:52:59;8.55;;;1.90;;
14933;SDS011;7560;51.364;12.384;2024-01-25T13:58:01;11.80;;;2.10;;
14933;SDS011;7560;51.364;12.384;2024-01-25T14:03:03;9.27;;;1.77;;
14933;SDS011;7560;51.364;12.384;2024-01-25T14:08:05;10.00;;;2.03;;
14933;SDS011;7560;51.364;12.384;2024-01-25T14:13:07;7.53;;;1.90;;
14933;SDS011;7560;51.364;12.384;2024-01-25T14:18:09;13.52;;;2.55;;
14933;SDS011;7560;51.364;12.384;2024-01-25T14:23:11;8.65;;;2.10;;
14933;SDS011;7560;51.364;12.384;2024-01-25T14:28:13;5.85;;;1.90;;
14933;SDS011;7560;51.364;12.384;2024-01-25T14:33:15;7.50;;;1.88;;
14933;SDS011;7560;51.364;12.384;2024-01-25T14:38:17;10.43;;;1.98;;
14933;SDS011;7560;51.364;12.384;2024-01-25T14:43:19;6.40;;;1.63;;
14933;SDS011;7560;51.364;12.384;2024-01-25T14:48:21;11.93;;;2.35;;
14933;SDS011;7560;51.364;12.384;2024-01-25T14:53:23;9.95;;;1.98;;
14933;SDS011;7560;51.364;12.384;2024-01-25T14:58:25;6.60;;;2.58;;
14933;SDS011;7560;51.364;12.384;2024-01-25T15:03:27;7.68;;;2.05;;
14933;SDS011;7560;51.364;12.384;2024-01-25T15:08:29;9.88;;;2.13;;
14933;SDS011;7560;51.364;12.384;2024-01-25T15:13:31;10.02;;;2.15;;
14933;SDS011;7560;51.364;12.384;2024-01-25T15:18:33;9.57;;;2.05;;
14933;SDS011;7560;51.364;12.384;2024-01-25T15:23:35;11.82;;;2.03;;
14933;SDS011;7560;51.364;12.384;2024-01-25T15:28:36;6.63;;;2.17;;
14933;SDS011;7560;51.364;12.384;2024-01-25T15:33:38;8.80;;;2.10;;
14933;SDS011;7560;51.364;12.384;2024-01-25T15:38:40;11.75;;;3.20;;
14933;SDS011;7560;51.364;12.384;2024-01-25T15:43:42;6.85;;;2.20;;
14933;SDS011;7560;51.364;12.384;2024-01-25T15:48:44;11.65;;;2.50;;
14933;SDS011;7560;51.364;12.384;2024-01-25T15:53:46;9.10;;;2.50;;
14933;SDS011;7560;51.364;12.384;2024-01-25T15:58:48;6.15;;;2.05;;
14933;SDS011;7560;51.364;12.384;2024-01-25T16:03:50;7.88;;;2.08;;
14933;SDS011;7560;51.364;12.384;2024-01-25T16:08:52;10.43;;;1.98;;
14933;SDS011;7560;51.364;12.384;2024-01-25T16:13:54;9.95;;;2.45;;
14933;SDS011;7560;51.364;12.384;2024-01-25T16:18:55;9.52;;;2.60;;
14933;SDS011;7560;51.364;12.384;2024-01-25T16:23:57;10.10;;;3.03;;
14933;SDS011;7560;51.364;12.384;2024-01-25T16:29:00;7.50;;;2.67;;
14933;SDS011;7560;51.364;12.384;2024-01-25T16:34:02;8.48;;;2.63;;
14933;SDS011;7560;51.364;12.384;2024-01-25T16:39:05;18.58;;;2.58;;
14933;SDS011;7560;51.364;12.384;2024-01-25T16:44:07;8.23;;;2.38;;
14933;SDS011;7560;51.364;12.384;2024-01-25T16:49:09;8.45;;;2.58;;
14933;SDS011;7560;51.364;12.384;2024-01-25T16:54:11;10.13;;;2.60;;
14933;SDS011;7560;51.364;12.384;2024-01-25T16:59:13;6.53;;;2.58;;
14933;SDS011;7560;51.364;12.384;2024-01-25T17:04:16;6.40;;;2.53;;
14933;SDS011;7560;51.364;12.384;2024-01-25T17:09:20;8.82;;;2.80;;
14933;SDS011;7560;51.364;12.384;2024-01-25T17:14:23;7.88;;;2.55;;
14933;SDS011;7560;51.364;12.384;2024-01-25T17:19:24;14.27;;;2.60;;
14933;SDS011;7560;51.364;12.384;2024-01-25T17:24:27;10.38;;;3.22;;
14933;SDS011;7560;51.364;12.384;2024-01-25T17:29:28;12.48;;;2.72;;
14933;SDS011;7560;51.364;12.384;2024-01-25T17:34:30;11.32;;;3.38;;
14933;SDS011;7560;51.364;12.384;2024-01-25T17:39:32;17.23;;;5.13;;
14933;SDS011;7560;51.364;12.384;2024-01-25T17:44:35;20.08;;;5.47;;
14933;SDS011;7560;51.364;12.384;2024-01-25T17:49:36;17.48;;;5.18;;
14933;SDS011;7560;51.364;12.384;2024-01-25T17:54:38;8.35;;;3.55;;
14933;SDS011;7560;51.364;12.384;2024-01-25T17:59:40;17.65;;;6.10;;
14933;SDS011;7560;51.364;12.384;2024-01-25T18:04:42;6.38;;;2.92;;
14933;SDS011;7560;51.364;12.384;2024-01-25T18:09:43;8.25;;;3.45;;
14933;SDS011;7560;51.364;12.384;2024-01-25T18:14:45;7.25;;;3.38;;
14933;SDS011;7560;51.364;12.384;2024-01-25T18:19:47;13.98;;;4.90;;
14933;SDS011;7560;51.364;12.384;2024-01-25T18:24:49;9.38;;;4.35;;
14933;SDS011;7560;51.364;12.384;2024-01-25T18:29:51;12.05;;;4.68;;
14933;SDS011;7560;51.364;12.384;2024-01-25T18:34:52;8.90;;;3.85;;
14933;SDS011;7560;51.364;12.384;2024-01-25T18:39:54;12.73;;;4.22;;
14933;SDS011;7560;51.364;12.384;2024-01-25T18:44:56;11.52;;;4.63;;
14933;SDS011;7560;51.364;12.384;2024-01-25T18:49:58;12.70;;;5.43;;
14933;SDS011;7560;51.364;12.384;2024-01-25T18:55:02;18.85;;;6.15;;
14933;SDS011;7560;51.364;12.384;2024-01-25T19:00:05;17.10;;;5.70;;
14933;SDS011;7560;51.364;12.384;2024-01-25T19:05:08;12.85;;;5.60;;
14933;SDS011;7560;51.364;12.384;2024-01-25T19:10:11;16.45;;;5.70;;
14933;SDS011;7560;51.364;12.384;2024-01-25T19:15:13;11.48;;;5.60;;
14933;SDS011;7560;51.364;12.384;2024-01-25T19:20:15;15.13;;;5.15;;
14933;SDS011;7560;51.364;12.384;2024-01-25T19:25:17;17.30;;;5.75;;
14933;SDS011;7560;51.364;12.384;2024-01-25T19:30:19;15.80;;;6.35;;
14933;SDS011;7560;51.364;12.384;2024-01-25T19:35:22;15.15;;;5.95;;
14933;SDS011;7560;51.364;12.384;2024-01-25T19:40:26;15.60;;;5.45;;
14933;SDS011;7560;51.364;12.384;2024-01-25T19:45:28;19.40;;;5.22;;
14933;SDS011;7560;51.364;12.384;2024-01-25T19:50:30;14.25;;;5.60;;
14933;SDS011;7560;51.364;12.384;2024-01-25T19:55:32;12.93;;;5.30;;
14933;SDS011;7560;51.364;12.384;2024-01-25T20:00:34;10.55;;;5.90;;
14933;SDS011;7560;51.364;12.384;2024-01-25T20:05:37;16.27;;;6.78;;
14933;SDS011;7560;51.364;12.384;2024-01-25T20:10:39;18.98;;;6.90;;
14933;SDS011;7560;51.364;12.384;2024-01-25T20:15:41;17.20;;;6.45;;
14933;SDS011;7560;51.364;12.384;2024-01-25T20:20:43;17.00;;;8.90;;
14933;SDS011;7560;51.364;12.384;2024-01-25T20:25:49;13.68;;;5.88;;
14933;SDS011;7560;51.364;12.384;2024-01-25T20:30:52;17.13;;;6.03;;
14933;SDS011;7560;51.364;12.384;2024-01-25T20:35:54;12.93;;;5.60;;
14933;SDS011;7560;51.364;12.384;2024-01-25T20:40:56;14.80;;;6.50;;
14933;SDS011;7560;51.364;12.384;2024-01-25T20:45:57;15.93;;;6.80;;
14933;SDS011;7560;51.364;12.384;2024-01-25T20:50:59;15.43;;;6.03;;
14933;SDS011;7560;51.364;12.384;2024-01-25T20:56:01;17.13;;;7.15;;
14933;SDS011;7560;51.364;12.384;2024-01-25T21:01:03;18.23;;;8.27;;
14933;SDS011;7560;51.364;12.384;2024-01-25T21:06:06;18.25;;;7.78;;
14933;SDS011;7560;51.364;12.384;2024-01-25T21:11:11;16.85;;;8.25;;
14933;SDS011;7560;51.364;12.384;2024-01-25T21:16:16;17.50;;;8.05;;
14933;SDS011;7560;51.364;12.384;2024-01-25T21:21:20;19.88;;;8.07;;
14933;SDS011;7560;51.364;12.384;2024-01-25T21:26:22;18.25;;;8.35;;
14933;SDS011;7560;51.364;12.384;2024-01-25T21:31:24;15.20;;;6.70;;
14933;SDS011;7560;51.364;12.384;2024-01-25T21:36:26;14.32;;;7.30;;
14933;SDS011;7560;51.364;12.384;2024-01-25T21:41:27;21.65;;;9.63;;
14933;SDS011;7560;51.364;12.384;2024-01-25T21:46:29;19.00;;;8.13;;
14933;SDS011;7560;51.364;12.384;2024-01-25T21:51:32;22.58;;;8.07;;
14933;SDS011;7560;51.364;12.384;2024-01-25T21:56:34;19.95;;;7.90;;
14933;SDS011;7560;51.364;12.384;2024-01-25T22:01:36;18.13;;;7.57;;
14933;SDS011;7560;51.364;12.384;2024-01-25T22:06:38;18.42;;;8.25;;
14933;SDS011;7560;51.364;12.384;2024-01-25T22:11:40;17.50;;;6.55;;
14933;SDS011;7560;51.364;12.384;2024-01-25T22:16:42;18.15;;;7.75;;
14933;SDS011;7560;51.364;12.384;2024-01-25T22:21:44;15.95;;;7.55;;
14933;SDS011;7560;51.364;12.384;2024-01-25T22:26:45;15.85;;;7.05;;
14933;SDS011;7560;51.364;12.384;2024-01-25T22:31:48;17.50;;;7.25;;
14933;SDS011;7560;51.364;12.384;2024-01-25T22:36:50;16.98;;;6.97;;
14933;SDS011;7560;51.364;12.384;2024-01-25T22:41:52;19.65;;;7.15;;
14933;SDS011;7560;51.364;12.384;2024-01-25T22:46:53;15.15;;;6.13;;
14933;SDS011;7560;51.364;12.384;2024-01-25T22:52:05;18.52;;;6.55;;
14933;SDS011;7560;51.364;12.384;2024-01-25T22:57:07;16.38;;;6.82;;
14933;SDS011;7560;51.364;12.384;2024-01-25T23:02:09;15.90;;;6.22;;
14933;SDS011;7560;51.364;12.384;2024-01-25T23:07:11;20.60;;;7.15;;
14933;SDS011;7560;51.364;12.384;2024-01-25T23:12:13;21.40;;;7.05;;
14933;SDS011;7560;51.364;12.384;2024-01-25T23:17:15;18.73;;;6.53;;
14933;SDS011;7560;51.364;12.384;2024-01-25T23:22:17;19.20;;;6.88;;
14933;SDS011;7560;51.364;12.384;2024-01-25T23:27:19;19.85;;;6.32;;
14933;SDS011;7560;51.364;12.384;2024-01-25T23:32:21;16.48;;;6.75;;
14933;SDS011;7560;51.364;12.384;2024-01-25T23:37:22;16.85;;;6.85;;
14933;SDS011;7560;51.364;12.384;2024-01-25T23:42:25;16.38;;;6.00;;
14933;SDS011;7560;51.364;12.384;2024-01-25T23:47:27;15.60;;;6.07;;
14933;SDS011;7560;51.364;12.384;2024-01-25T23:52:30;15.60;;;6.00;;
14933;SDS011;7560;51.364;12.384;2024-01-25T23:57:32;16.40;;;5.82;;
